Somerville, MA

7:55 AM EDT on March 28, 2015 (GMT -0400)
Hanscom | | Change Station
CLOSE
Current Station
Airport
Location: Bedford,
Elevation: 135 ft
Nearby Weather Stations
Active Advisory: Special Statement

Elev 135 ft 42.47 °N, 71.29 °W | Updated 59 minutes ago

Snow
Snow
35 °F
Feels Like 29 °F
N
7
Wind Variable Wind from North

Today
High -- | Low -- °F
--% Chance of Precip.
Yesterday
High -- | Low -- °F
Precip. -- in
6:34 AM 7:05 PM
First Quarter, 61% visible
Pressure 29.78 in
Visibility 10.0 miles
Clouds Overcast 3300 ft
Windchill 29 °F
Dew Point 30 °F
Humidity 82%
Rainfall 0.00 in
Snow Depth Not available.
UV 0 out of 12
Pollen .90 out of 12
Air Quality Not available.
Flu Activity Not available.
METAR KBED 281056Z 36006KT 10SM OVC033 02/M01 A2973 RMK AO2 SLP083 T00171011

More Conditions Fewer Conditions

Pressure 29.78 in
Visibility 10.0 miles
Clouds Overcast 3300 ft
Windchill 29 °F
Dew Point 30 °F
Humidity 82%
Rainfall 0.00 in
Snow Depth Not available.
UV 0 out of 12
Pollen .90 out of 12
Air Quality Not available.
Flu Activity Not available.
METAR KBED 281056Z 36006KT 10SM OVC033 02/M01 A2973 RMK AO2 SLP083 T00171011

More Conditions Fewer Conditions

10-Day Weather Forecast

Almanac

Astronomy

Mar. 28, 2015 Rise Set
Actual Time
Civil Twilight
Nautical Twilight
Astronomical Twilight
Moon
Length of Visible Light
Length of Day
Tomorrow will be .
, % of the Moon is Illuminated

Today's Extremes

State Highs State Lows

Community

WunderPhotos

Upload Photos

1,808,960 photos uploaded!

WunderBlogs® & News

Nearby

Air Quality

  Air Quality AQ Index Pollutant
Not available.

Snow Depth

Station Depth Elevation

Earthquake Activity

City Distance Mag. Time & Date
Minimum magnitude displayed is 2.5.

Coastal Water Temperatures

Place Temperature

Stations

Nearby Weather Stations

Station Location Temp. Windchill Dew Point Humidity Wind Precip. Elev Updated Type
                   
Special Statement
Statement as of 4:10 AM EDT on March 28, 2015

... Accumulating snowfall is expected today and early tonight...

A low pressure area passing well southeast of southern New
England will produce some snowfall within our region. The most
favored location will be across the central hills of southern New
England... from northeast Connecticut and northwest Rhode Island
into Worcester County Massachusetts. The expected start time will
be from 3 to 6 am. The snow will continue into Saturday.

Travelers should be prepared for lower visibility at times...
along with the possibility of snow-covered roads.

Total snow accumulations of 1 to 3 inches are expected... with
locally higher amounts possible. Please see our winter weather
Page for more details at... weather.Gov/Boston/winter.


Wtb